KAEX/AEX METAR and TAF weather

Enter ICAO airport designator
Station Type Date Time Source
KAEX METAR 2022/11/30 10:53 UTC NOAA

KAEX 301053Z 33014G24KT 10SM OVC015 17/12 A3002 RMK AO2 PK WND 32033/1010 SLP169 T01670122


Station Type Date Time Source
KAEX Decoded METAR 2022/11/30 10:53 UTC NOAA

ALEXANDRIA INTERNATIONAL AIRPORT, LA, United States (KAEX) 31-33N 092-56W 27M
Nov 30, 2022 - 05:53 AM EST / 2022.11.30 1053 UTC
Wind: from the NNW (330 degrees) at 16 MPH (14 KT) gusting to 28 MPH (24 KT):0
Visibility: 10 mile(s):0
Sky conditions: overcast
Temperature: 62.1 F (16.7 C)
Dew Point: 54.0 F (12.2 C)
Relative Humidity: 74%
Pressure (altimeter): 30.02 in. Hg (1016 hPa)
ob: KAEX 301053Z 33014G24KT 10SM OVC015 17/12 A3002 RMK AO2 PK WND 32033/1010 SLP169 T01670122
cycle: 11

Station Type Date Time Source
KAEX TAF 2022/11/30 10:24 UTC NOAA

TAF
AMD KAEX 301023Z 3010/0106 31015G30KT 6SM BR OVC020
FM301200 33015G20KT P6SM SKC
FM302100 03014G21KT P6SM SKC
FM010000 03005KT P6SM SKC

Example: see airport list